Date,TemperatureHighF,TemperatureAvgF,TemperatureLowF,DewpointHighF,DewpointAvgF,DewpointLowF,HumidityHigh,HumidityAvg,HumidityLow,PressureMaxIn,PressureMinIn,WindSpeedMaxMPH,WindSpeedAvgMPH,GustSpeedMaxMPH,PrecipitationSumIn
2013-1-1,22,13,3,13,7,-2,85,77,62,30.40,30.21,8,2,8,0.01
2013-1-2,35,25,14,28,19,8,82,77,70,30.26,30.10,12,3,12,0.02
2013-1-3,31,24,14,26,18,9,84,76,64,30.45,30.25,21,6,21,0.00
2013-1-4,34,22,13,21,15,9,86,75,54,30.40,30.20,13,3,13,0.00
2013-1-5,39,28,17,30,21,13,86,75,56,30.24,30.02,26,6,27,0.00
2013-1-6,41,27,15,25,19,11,81,71,50,30.38,30.17,22,5,22,0.00
2013-1-7,44,33,27,29,24,20,85,71,51,30.16,29.95,26,4,27,0.00
2013-1-8,46,35,27,31,27,22,85,73,54,30.16,29.85,23,6,23,0.00
2013-1-9,51,36,25,34,28,21,89,73,49,30.46,30.15,8,2,8,0.00
2013-1-10,39,37,31,37,32,24,96,84,60,30.34,29.70,20,6,20,0.18
2013-1-11,55,45,29,47,40,21,97,83,49,29.77,29.37,34,12,34,0.01
2013-1-12,29,21,13,21,9,3,71,60,46,30.20,29.77,33,15,33,0.00
2013-1-13,23,14,7,6,3,0,76,63,40,30.42,30.19,20,8,20,0.00
2013-1-14,30,18,4,14,7,-1,81,64,41,30.55,30.41,13,2,13,0.00
2013-1-15,36,23,12,16,12,6,79,62,36,30.42,30.10,13,3,13,0.00
2013-1-16,52,36,21,33,25,14,81,65,43,30.24,29.96,22,7,22,0.00
2013-1-17,44,31,26,36,27,23,95,87,69,30.51,30.24,11,3,11,0.00
2013-1-18,56,41,27,32,28,24,90,63,36,30.32,29.90,22,7,22,0.00
2013-1-19,55,40,26,31,27,15,80,60,35,30.33,29.87,29,10,29,0.00
2013-1-20,26,19,11,15,8,4,76,63,45,30.48,30.32,15,6,15,0.00
2013-1-21,16,13,10,10,-2,-9,81,53,39,30.53,30.43,21,8,21,0.00
2013-1-22,25,17,11,9,6,-3,74,61,46,30.46,30.30,13,4,13,0.00
2013-1-23,34,21,10,18,11,2,80,65,51,30.53,30.22,21,7,21,0.00
2013-1-24,21,12,2,6,-1,-7,67,54,42,30.61,30.24,17,10,17,0.00
2013-1-25,51,30,14,24,15,5,77,56,29,30.27,30.15,18,4,18,0.00
2013-1-26,55,34,19,26,21,15,85,64,27,30.28,30.01,21,10,21,0.00
2013-1-27,44,40,36,43,37,25,97,91,59,30.01,29.67,18,8,18,0.30
2013-1-28,48,40,33,48,39,32,100,98,97,29.86,29.53,12,5,12,0.00
2013-1-29,41,34,31,41,32,29,100,91,84,29.70,29.53,28,13,28,0.01
2013-1-30,31,22,11,30,16,6,96,80,60,30.01,29.62,32,17,32,0.00
2013-1-31,17,9,0,11,-1,-8,81,64,53,30.54,30.00,34,12,34,0.00